createdAt,value
2023-11-07T00:01:28.518Z,9.00
2023-11-07T00:03:55.806Z,9.10
2023-11-07T00:06:22.983Z,9.10
2023-11-07T00:08:50.758Z,9.10
2023-11-07T00:11:17.765Z,9.10
2023-11-07T00:13:44.689Z,9.20
2023-11-07T00:16:12.589Z,9.30
2023-11-07T00:18:41.153Z,9.30
2023-11-07T00:21:12.264Z,9.40
2023-11-07T00:23:39.415Z,9.50
2023-11-07T00:26:06.897Z,9.40
2023-11-07T00:28:33.830Z,9.50
2023-11-07T00:31:00.910Z,9.50
2023-11-07T00:33:27.986Z,9.50
2023-11-07T00:35:55.160Z,9.60
2023-11-07T00:38:22.163Z,9.60
2023-11-07T00:40:49.947Z,9.70
2023-11-07T00:43:17.000Z,9.60
2023-11-07T00:45:44.874Z,9.60
2023-11-07T00:48:12.426Z,9.60
2023-11-07T00:50:39.403Z,9.80
2023-11-07T00:53:06.395Z,9.80
2023-11-07T00:55:33.287Z,9.80
2023-11-07T00:58:00.299Z,9.70
2023-11-07T01:00:28.641Z,9.70
2023-11-07T01:02:55.713Z,9.80
2023-11-07T01:05:22.973Z,9.90
2023-11-07T01:07:50.001Z,9.90
2023-11-07T01:10:16.982Z,9.90
2023-11-07T01:12:44.013Z,9.80
2023-11-07T01:15:11.528Z,9.80
2023-11-07T01:17:38.883Z,9.80
2023-11-07T01:20:11.054Z,9.70
2023-11-07T01:22:38.994Z,9.60
2023-11-07T01:25:06.867Z,9.80
2023-11-07T01:27:33.803Z,9.70
2023-11-07T01:30:00.825Z,9.70
2023-11-07T01:32:29.490Z,9.70
2023-11-07T01:34:56.592Z,9.60
2023-11-07T01:37:23.500Z,9.60
2023-11-07T01:39:50.803Z,9.60
2023-11-07T01:42:17.820Z,9.60
2023-11-07T01:44:51.091Z,9.60
2023-11-07T01:47:19.963Z,9.60
2023-11-07T01:49:47.778Z,9.50
2023-11-07T01:52:17.700Z,9.50
2023-11-07T01:54:48.339Z,9.50
2023-11-07T01:57:15.616Z,9.60
2023-11-07T01:59:43.061Z,9.70
2023-11-07T02:02:11.543Z,9.70
2023-11-07T02:04:39.507Z,9.80
2023-11-07T02:07:08.302Z,9.80
2023-11-07T02:09:35.228Z,9.80
2023-11-07T02:12:02.152Z,9.80
2023-11-07T02:14:29.906Z,9.70
2023-11-07T02:16:57.147Z,9.80
2023-11-07T02:19:24.089Z,9.80
2023-11-07T02:21:53.930Z,9.80
2023-11-07T02:24:20.970Z,9.70
2023-11-07T02:26:48.060Z,9.60
2023-11-07T02:29:15.492Z,9.40
2023-11-07T02:31:42.369Z,9.40
2023-11-07T02:34:10.602Z,9.30
2023-11-07T02:36:39.879Z,9.30
2023-11-07T02:39:09.605Z,9.60
2023-11-07T02:41:36.637Z,9.70
2023-11-07T02:44:03.968Z,9.80
2023-11-07T02:46:30.887Z,9.80
2023-11-07T02:48:58.127Z,9.80
2023-11-07T02:51:25.404Z,9.80
2023-11-07T02:53:52.430Z,9.80
2023-11-07T02:56:29.126Z,9.90
2023-11-07T02:58:56.580Z,9.90
2023-11-07T03:05:23.666Z,10.00
2023-11-07T03:07:50.778Z,10.00
2023-11-07T03:10:17.791Z,10.00
2023-11-07T03:12:46.293Z,10.00
2023-11-07T03:15:14.691Z,10.00
2023-11-07T03:17:42.384Z,10.00
2023-11-07T03:20:10.191Z,10.00
2023-11-07T03:22:37.136Z,9.90
2023-11-07T03:25:05.323Z,10.00
2023-11-07T03:27:32.349Z,10.00
2023-11-07T03:29:59.341Z,10.00
2023-11-07T03:32:26.415Z,10.10
2023-11-07T03:34:53.339Z,10.10
2023-11-07T03:37:20.222Z,10.00
2023-11-07T03:39:47.347Z,10.00
2023-11-07T03:42:14.511Z,10.10
2023-11-07T03:44:42.109Z,10.10
2023-11-07T03:47:09.153Z,10.10
2023-11-07T03:49:36.831Z,10.10
2023-11-07T03:52:03.941Z,10.10
2023-11-07T03:54:30.832Z,10.10
2023-11-07T03:56:57.919Z,10.10
2023-11-07T03:59:24.864Z,10.10
2023-11-07T04:01:53.337Z,10.10
2023-11-07T04:04:21.348Z,10.20
2023-11-07T04:06:50.039Z,10.20
2023-11-07T04:09:18.937Z,10.20
2023-11-07T04:11:46.013Z,10.10
2023-11-07T04:14:14.699Z,10.10
2023-11-07T04:16:41.638Z,10.00
2023-11-07T04:19:09.235Z,10.00
2023-11-07T04:21:37.001Z,10.00
2023-11-07T04:24:06.237Z,10.00
2023-11-07T04:26:33.437Z,10.00
2023-11-07T04:29:00.357Z,10.00
2023-11-07T04:31:30.493Z,9.90
2023-11-07T04:33:57.491Z,9.80
2023-11-07T04:36:24.439Z,9.80
2023-11-07T04:38:51.459Z,9.70
2023-11-07T04:41:18.490Z,9.60
2023-11-07T04:43:45.612Z,9.60
2023-11-07T04:46:13.390Z,9.50
2023-11-07T04:48:40.634Z,9.50
2023-11-07T04:51:07.750Z,9.50
2023-11-07T04:53:34.806Z,9.40
2023-11-07T04:56:01.765Z,9.40
2023-11-07T04:58:28.683Z,9.40
2023-11-07T05:00:55.554Z,9.40
2023-11-07T05:03:29.705Z,9.40
2023-11-07T05:06:02.795Z,9.30
2023-11-07T05:08:30.379Z,9.20
2023-11-07T05:10:57.419Z,9.20
2023-11-07T05:13:24.294Z,9.30
2023-11-07T05:15:51.210Z,9.30
2023-11-07T05:18:18.137Z,9.20
2023-11-07T05:20:45.176Z,9.30
2023-11-07T05:23:12.269Z,9.40
2023-11-07T05:25:39.291Z,9.40
2023-11-07T05:28:06.409Z,9.40
2023-11-07T05:30:33.548Z,9.40
2023-11-07T05:33:00.630Z,9.50
2023-11-07T05:35:27.609Z,9.60
2023-11-07T05:37:55.697Z,9.60
2023-11-07T05:40:25.165Z,9.70
2023-11-07T05:42:53.337Z,9.60
2023-11-07T05:45:20.691Z,9.60
2023-11-07T05:47:47.884Z,9.60
2023-11-07T05:50:14.958Z,9.60
2023-11-07T05:52:41.867Z,9.60
2023-11-07T05:55:09.687Z,9.60
2023-11-07T05:57:37.209Z,9.50
2023-11-07T06:00:08.909Z,9.60
2023-11-07T06:02:39.308Z,9.60
2023-11-07T06:05:10.694Z,9.60
2023-11-07T06:07:37.751Z,9.60
2023-11-07T06:10:05.065Z,9.70
2023-11-07T06:12:31.992Z,9.80
2023-11-07T06:14:59.000Z,9.80
2023-11-07T06:17:26.029Z,9.80
2023-11-07T06:19:52.924Z,9.70
2023-11-07T06:22:19.848Z,9.70
2023-11-07T06:24:47.335Z,9.70
2023-11-07T06:27:14.381Z,9.70
2023-11-07T06:29:43.757Z,9.60
2023-11-07T06:32:11.437Z,9.70
2023-11-07T06:34:38.733Z,9.90
2023-11-07T06:37:05.815Z,9.90
2023-11-07T06:39:32.781Z,9.90
2023-11-07T06:42:00.091Z,10.00
2023-11-07T06:44:30.057Z,9.90
2023-11-07T06:46:57.111Z,10.10
2023-11-07T06:49:25.359Z,10.20
2023-11-07T06:51:52.802Z,10.00
2023-11-07T06:54:19.835Z,10.00
2023-11-07T06:56:48.216Z,10.00
2023-11-07T06:59:15.316Z,10.00
2023-11-07T07:01:42.228Z,10.00
2023-11-07T07:04:11.236Z,10.20
2023-11-07T07:06:38.672Z,10.50
2023-11-07T07:09:06.309Z,10.40
2023-11-07T07:11:33.875Z,10.70
2023-11-07T07:14:00.947Z,10.80
2023-11-07T07:16:31.591Z,10.50
2023-11-07T07:18:58.903Z,10.70
2023-11-07T07:21:26.413Z,10.80
2023-11-07T07:26:23.497Z,10.80
2023-11-07T07:28:53.418Z,11.00
2023-11-07T07:31:28.322Z,11.10
2023-11-07T07:33:57.660Z,11.40
2023-11-07T07:36:24.982Z,11.30
2023-11-07T07:38:53.844Z,11.30
2023-11-07T07:41:21.795Z,11.20
2023-11-07T07:43:48.780Z,11.50
2023-11-07T07:46:16.411Z,11.60
2023-11-07T07:48:46.799Z,11.70
2023-11-07T07:51:15.445Z,11.30
2023-11-07T07:53:43.430Z,11.10
2023-11-07T07:56:14.934Z,10.90
2023-11-07T07:58:43.665Z,10.70
2023-11-07T08:01:11.178Z,10.70
2023-11-07T08:03:39.652Z,10.70
2023-11-07T08:06:07.266Z,10.70
2023-11-07T08:08:34.178Z,10.70
2023-11-07T08:11:01.096Z,10.80
2023-11-07T08:13:30.101Z,10.80
2023-11-07T08:15:57.077Z,10.70
2023-11-07T08:18:24.484Z,10.70
2023-11-07T08:20:51.964Z,10.60
2023-11-07T08:23:19.207Z,10.70
2023-11-07T08:25:46.069Z,10.70
2023-11-07T08:28:13.954Z,10.70
2023-11-07T08:30:45.186Z,10.80
2023-11-07T08:33:15.033Z,10.80
2023-11-07T08:35:42.130Z,10.80
2023-11-07T08:38:09.066Z,10.90
2023-11-07T08:40:36.749Z,11.10
2023-11-07T08:43:04.379Z,11.20
2023-11-07T08:45:33.922Z,11.30
2023-11-07T08:48:01.512Z,11.40
2023-11-07T08:50:28.571Z,11.60
2023-11-07T08:52:57.714Z,11.70
2023-11-07T08:55:26.866Z,12.30
2023-11-07T08:57:54.811Z,15.00
2023-11-07T09:00:28.616Z,16.60
2023-11-07T09:02:55.940Z,15.60
2023-11-07T09:05:23.899Z,16.60
2023-11-07T09:07:51.700Z,18.80
2023-11-07T09:10:21.303Z,16.50
2023-11-07T09:12:48.417Z,15.80
2023-11-07T09:15:15.843Z,15.40
2023-11-07T09:17:43.885Z,15.70
2023-11-07T09:20:15.217Z,17.20
2023-11-07T09:22:42.523Z,17.40
2023-11-07T09:25:10.690Z,15.50
2023-11-07T09:27:38.058Z,14.60
2023-11-07T09:30:11.020Z,14.70
2023-11-07T09:32:44.173Z,15.80
2023-11-07T09:35:12.467Z,18.50
2023-11-07T09:37:44.798Z,18.10
2023-11-07T09:40:20.862Z,16.90
2023-11-07T09:42:50.144Z,16.40
2023-11-07T09:45:19.720Z,15.10
2023-11-07T09:47:49.404Z,14.10
2023-11-07T09:50:23.749Z,15.40
2023-11-07T09:52:52.990Z,17.70
2023-11-07T09:55:20.175Z,16.50
2023-11-07T09:58:09.088Z,15.20
2023-11-07T10:00:46.656Z,14.70
2023-11-07T10:03:15.444Z,15.30
2023-11-07T10:05:43.055Z,16.00
2023-11-07T10:08:10.369Z,14.50
2023-11-07T10:10:37.412Z,14.40
2023-11-07T10:13:12.499Z,13.60
2023-11-07T10:15:40.901Z,13.20
2023-11-07T10:18:13.165Z,13.10
2023-11-07T10:20:56.126Z,13.10
2023-11-07T10:23:23.933Z,13.10
2023-11-07T10:25:51.959Z,13.30
2023-11-07T10:28:23.967Z,13.20
2023-11-07T10:30:52.061Z,13.20
2023-11-07T10:33:33.975Z,13.70
2023-11-07T10:36:04.115Z,13.50
2023-11-07T10:38:32.190Z,13.80
2023-11-07T10:41:00.426Z,14.10
2023-11-07T10:43:41.429Z,13.90
2023-11-07T10:46:12.449Z,14.00
2023-11-07T10:48:41.533Z,13.70
2023-11-07T10:51:16.263Z,13.20
2023-11-07T10:53:44.197Z,13.60
2023-11-07T10:56:16.321Z,13.70
2023-11-07T10:59:00.561Z,14.20
2023-11-07T11:01:29.001Z,13.60
2023-11-07T11:03:59.685Z,13.70
2023-11-07T11:06:27.535Z,13.70
2023-11-07T11:08:57.893Z,13.70
2023-11-07T11:11:32.026Z,13.70
2023-11-07T11:14:00.455Z,14.00
2023-11-07T11:16:29.976Z,14.30
2023-11-07T11:19:01.241Z,14.70
2023-11-07T11:21:37.407Z,15.70
2023-11-07T11:24:15.020Z,15.70
2023-11-07T11:26:48.567Z,15.50
2023-11-07T11:29:26.321Z,17.20
2023-11-07T11:31:53.933Z,16.90
2023-11-07T11:34:29.932Z,16.40
2023-11-07T11:36:58.879Z,15.50
2023-11-07T11:39:46.782Z,15.30
2023-11-07T11:42:14.045Z,14.60
2023-11-07T11:44:41.107Z,14.00
2023-11-07T11:47:10.634Z,13.80
2023-11-07T11:49:43.373Z,13.70
2023-11-07T11:52:35.708Z,13.50
2023-11-07T11:55:08.542Z,13.20
2023-11-07T11:58:22.554Z,12.90
2023-11-07T12:00:50.866Z,13.20
2023-11-07T12:03:20.055Z,14.60
2023-11-07T12:06:07.184Z,14.90
2023-11-07T12:08:34.629Z,15.50
2023-11-07T12:11:03.381Z,15.50
2023-11-07T12:13:34.065Z,15.30
2023-11-07T12:16:19.791Z,16.10
2023-11-07T12:18:51.130Z,17.10
2023-11-07T12:21:26.098Z,17.30
2023-11-07T12:23:54.880Z,16.60
2023-11-07T12:26:22.151Z,17.20
2023-11-07T12:28:50.201Z,17.30
2023-11-07T12:31:25.198Z,16.60
2023-11-07T12:33:52.953Z,15.50
2023-11-07T12:36:20.138Z,16.30
2023-11-07T12:38:47.319Z,16.30
2023-11-07T12:41:14.667Z,15.60
2023-11-07T12:43:45.639Z,15.30
2023-11-07T12:46:15.939Z,14.10
2023-11-07T12:48:43.058Z,13.90
2023-11-07T12:51:10.832Z,14.20
2023-11-07T12:53:50.690Z,14.00
2023-11-07T12:56:19.942Z,13.90
2023-11-07T12:58:47.504Z,14.10
2023-11-07T13:01:14.645Z,14.30
2023-11-07T13:03:41.771Z,14.30
2023-11-07T13:06:13.619Z,13.90
2023-11-07T13:08:48.529Z,13.80
2023-11-07T13:11:20.417Z,13.80
2023-11-07T13:13:53.701Z,13.90
2023-11-07T13:16:21.320Z,13.60
2023-11-07T13:18:58.449Z,13.60
2023-11-07T13:21:26.080Z,13.50
2023-11-07T13:23:53.236Z,13.40
2023-11-07T13:26:21.586Z,13.30
2023-11-07T13:28:48.587Z,13.50
2023-11-07T13:31:15.839Z,13.60
2023-11-07T13:33:45.365Z,13.20
2023-11-07T13:36:16.893Z,12.80
2023-11-07T13:38:47.168Z,12.80
2023-11-07T13:41:14.436Z,12.90
2023-11-07T13:43:41.773Z,13.00
2023-11-07T13:46:08.912Z,13.10
2023-11-07T13:48:36.048Z,13.40
2023-11-07T13:51:03.256Z,13.50
2023-11-07T13:53:30.538Z,13.00
2023-11-07T13:55:57.626Z,13.00
2023-11-07T13:58:24.578Z,12.80
2023-11-07T14:00:51.653Z,12.70
2023-11-07T14:03:18.655Z,12.80
2023-11-07T14:05:46.705Z,12.60
2023-11-07T14:08:15.854Z,12.60
2023-11-07T14:10:45.475Z,12.70
2023-11-07T14:13:12.396Z,13.00
2023-11-07T14:15:39.555Z,12.80
2023-11-07T14:18:13.242Z,13.00
2023-11-07T14:20:59.670Z,12.80
2023-11-07T14:23:27.748Z,12.70
2023-11-07T14:25:54.874Z,12.50
2023-11-07T14:28:21.934Z,12.50
2023-11-07T14:30:48.858Z,12.60
2023-11-07T14:33:20.973Z,12.60
2023-11-07T14:35:48.082Z,12.50
2023-11-07T14:38:16.939Z,12.50
2023-11-07T14:40:46.776Z,12.60
2023-11-07T14:43:17.298Z,12.50
2023-11-07T14:45:45.588Z,12.50
2023-11-07T14:48:15.136Z,12.70
2023-11-07T14:50:42.640Z,12.60
2023-11-07T14:53:09.506Z,12.40
2023-11-07T14:55:36.907Z,12.30
2023-11-07T14:58:07.766Z,12.40
2023-11-07T15:00:41.599Z,12.40
2023-11-07T15:03:11.794Z,12.30
2023-11-07T15:05:40.509Z,12.20
2023-11-07T15:08:08.129Z,12.40
2023-11-07T15:10:36.302Z,12.40
2023-11-07T15:13:05.342Z,12.20
2023-11-07T15:15:34.093Z,12.20
2023-11-07T15:18:11.310Z,12.10
2023-11-07T15:20:41.348Z,12.30
2023-11-07T15:23:09.043Z,12.20
2023-11-07T15:25:37.236Z,12.40
2023-11-07T15:28:04.996Z,12.30
2023-11-07T15:30:32.564Z,12.20
2023-11-07T15:33:02.199Z,12.10
2023-11-07T15:35:35.725Z,12.00
2023-11-07T15:38:03.708Z,11.70
2023-11-07T15:40:30.712Z,11.50
2023-11-07T15:42:57.545Z,11.50
2023-11-07T15:45:24.606Z,11.50
2023-11-07T15:47:51.688Z,11.50
2023-11-07T15:50:18.985Z,11.40
2023-11-07T15:53:04.094Z,11.50
2023-11-07T15:55:37.784Z,11.30
2023-11-07T15:58:04.868Z,11.20
2023-11-07T16:00:33.151Z,11.40
2023-11-07T16:03:00.261Z,11.30
2023-11-07T16:05:33.293Z,11.20
2023-11-07T16:08:00.443Z,11.10
2023-11-07T16:10:27.449Z,10.80
2023-11-07T16:12:54.883Z,10.70
2023-11-07T16:15:22.824Z,10.50
2023-11-07T16:17:51.947Z,10.60
2023-11-07T16:20:23.326Z,10.90
2023-11-07T16:22:50.325Z,11.00
2023-11-07T16:25:17.949Z,10.90
2023-11-07T16:27:45.527Z,10.60
2023-11-07T16:30:16.211Z,10.40
2023-11-07T16:32:43.233Z,10.30
2023-11-07T16:35:11.767Z,10.30
2023-11-07T16:37:39.344Z,10.20
2023-11-07T16:40:12.835Z,10.20
2023-11-07T16:42:41.742Z,10.00
2023-11-07T16:45:12.403Z,10.00
2023-11-07T16:47:42.558Z,10.10
2023-11-07T16:50:11.732Z,10.00
2023-11-07T16:52:41.799Z,10.00
2023-11-07T16:55:14.646Z,10.30
2023-11-07T16:57:43.708Z,10.20
2023-11-07T17:00:12.679Z,10.30
2023-11-07T17:02:40.352Z,10.30
2023-11-07T17:05:07.950Z,10.40
2023-11-07T17:07:34.900Z,10.30
2023-11-07T17:10:04.965Z,10.30
2023-11-07T17:12:32.516Z,10.30
2023-11-07T17:14:59.479Z,10.20
2023-11-07T17:17:26.883Z,10.20
2023-11-07T17:19:53.920Z,10.20
2023-11-07T17:22:20.947Z,10.20
2023-11-07T17:24:48.142Z,10.30
2023-11-07T17:27:15.193Z,10.10
2023-11-07T17:29:42.202Z,10.10
2023-11-07T17:32:12.087Z,10.10
2023-11-07T17:34:42.192Z,10.30
2023-11-07T17:37:09.208Z,10.40
2023-11-07T17:39:37.271Z,10.30
2023-11-07T17:42:05.705Z,10.40
2023-11-07T17:44:36.587Z,10.40
2023-11-07T17:47:03.582Z,10.40
2023-11-07T17:49:30.552Z,10.20
2023-11-07T17:51:57.557Z,10.20
2023-11-07T17:54:24.581Z,10.00
2023-11-07T17:56:51.570Z,9.90
2023-11-07T17:59:18.489Z,9.90
2023-11-07T18:01:45.481Z,10.00
2023-11-07T18:04:14.488Z,10.00
2023-11-07T18:06:44.554Z,10.00
2023-11-07T18:09:14.132Z,9.90
2023-11-07T18:11:42.104Z,9.70
2023-11-07T18:14:12.472Z,9.80
2023-11-07T18:16:39.770Z,9.70
2023-11-07T18:19:06.870Z,9.70
2023-11-07T18:21:42.647Z,9.60
2023-11-07T18:24:11.367Z,9.50
2023-11-07T18:26:39.197Z,9.40
2023-11-07T18:29:06.177Z,9.40
2023-11-07T18:31:33.175Z,9.40
2023-11-07T18:34:08.990Z,9.30
2023-11-07T18:37:00.743Z,9.30
2023-11-07T18:39:29.014Z,9.30
2023-11-07T18:41:56.474Z,9.30
2023-11-07T18:44:24.540Z,9.40
2023-11-07T18:46:51.472Z,9.30
2023-11-07T18:49:20.212Z,9.20
2023-11-07T18:51:48.008Z,9.20
2023-11-07T18:54:15.910Z,9.00
2023-11-07T18:56:45.646Z,9.00
2023-11-07T18:59:19.095Z,9.10
2023-11-07T19:01:51.164Z,9.00
2023-11-07T19:04:18.391Z,9.20
2023-11-07T19:06:45.800Z,9.10
2023-11-07T19:09:14.347Z,9.10
2023-11-07T19:11:41.763Z,9.00
2023-11-07T19:14:10.213Z,9.00
2023-11-07T19:16:37.559Z,8.90
2023-11-07T19:19:05.807Z,8.90
2023-11-07T19:21:33.133Z,9.00
2023-11-07T19:24:00.262Z,9.00
2023-11-07T19:26:27.602Z,9.10
2023-11-07T19:28:55.379Z,9.10
2023-11-07T19:31:22.905Z,8.90
2023-11-07T19:33:50.202Z,8.80
2023-11-07T19:36:17.482Z,8.80
2023-11-07T19:38:45.068Z,8.70
2023-11-07T19:41:13.595Z,8.70
2023-11-07T19:43:43.309Z,8.60
2023-11-07T19:46:12.380Z,8.60
2023-11-07T19:48:39.993Z,8.80
2023-11-07T19:51:07.030Z,8.70
2023-11-07T19:53:34.561Z,8.70
2023-11-07T19:56:02.009Z,8.70
2023-11-07T19:58:29.309Z,8.70
2023-11-07T20:00:57.711Z,8.80
2023-11-07T20:03:29.044Z,8.80
2023-11-07T20:05:56.171Z,8.80
2023-11-07T20:08:24.569Z,8.80
2023-11-07T20:10:52.887Z,8.90
2023-11-07T20:13:19.903Z,8.90
2023-11-07T20:15:46.859Z,9.10
2023-11-07T20:18:14.129Z,9.20
2023-11-07T20:20:41.208Z,9.10
2023-11-07T20:23:09.344Z,9.20
2023-11-07T20:25:36.324Z,9.40
2023-11-07T20:28:04.845Z,9.50
2023-11-07T20:30:32.773Z,9.40
2023-11-07T20:33:00.622Z,9.30
2023-11-07T20:35:29.116Z,9.30
2023-11-07T20:37:56.909Z,9.30
2023-11-07T20:40:23.795Z,9.20
2023-11-07T20:42:51.218Z,9.20
2023-11-07T20:45:20.201Z,9.30
2023-11-07T20:47:47.502Z,9.10
2023-11-07T20:50:17.563Z,9.10
2023-11-07T20:52:44.745Z,9.00
2023-11-07T20:55:11.841Z,8.90
2023-11-07T20:57:39.006Z,9.10
2023-11-07T21:00:08.396Z,8.90
2023-11-07T21:02:35.784Z,8.90
2023-11-07T21:05:02.839Z,8.90
2023-11-07T21:07:29.732Z,8.90
2023-11-07T21:09:58.194Z,8.80
2023-11-07T21:12:25.133Z,8.80
2023-11-07T21:14:52.321Z,8.80
2023-11-07T21:17:20.311Z,8.90
2023-11-07T21:19:47.891Z,8.90
2023-11-07T21:22:14.798Z,9.00
2023-11-07T21:24:41.921Z,8.90
2023-11-07T21:27:09.396Z,8.80
2023-11-07T21:29:36.546Z,8.90
2023-11-07T21:32:05.663Z,8.90
2023-11-07T21:34:32.819Z,8.90
2023-11-07T21:36:59.729Z,8.90
2023-11-07T21:39:26.780Z,8.90
2023-11-07T21:41:53.798Z,8.90
2023-11-07T21:44:20.814Z,9.00
2023-11-07T21:46:47.770Z,9.00
2023-11-07T21:49:14.797Z,9.20
2023-11-07T21:51:41.815Z,9.30
2023-11-07T21:54:08.815Z,9.40
2023-11-07T21:56:36.384Z,9.30
2023-11-07T21:59:03.736Z,9.30
2023-11-07T22:01:30.911Z,9.40
2023-11-07T22:03:58.208Z,9.60
2023-11-07T22:06:25.316Z,9.50
2023-11-07T22:08:52.484Z,9.60
2023-11-07T22:11:19.976Z,9.60
2023-11-07T22:13:46.870Z,9.70
2023-11-07T22:16:17.901Z,9.50
2023-11-07T22:18:44.995Z,9.50
2023-11-07T22:21:12.058Z,9.50
2023-11-07T22:23:40.385Z,9.60
2023-11-07T22:26:08.905Z,9.70
2023-11-07T22:28:36.093Z,9.90
2023-11-07T22:31:03.112Z,9.80
2023-11-07T22:33:30.337Z,9.60
2023-11-07T22:35:57.449Z,9.50
2023-11-07T22:38:24.433Z,9.40
2023-11-07T22:40:51.391Z,9.40
2023-11-07T22:43:20.025Z,9.40
2023-11-07T22:45:48.009Z,9.30
2023-11-07T22:48:15.158Z,9.30
2023-11-07T22:50:42.170Z,9.30
2023-11-07T22:53:09.529Z,9.30
2023-11-07T22:55:37.728Z,9.20
2023-11-07T22:58:05.945Z,9.20
2023-11-07T23:00:42.033Z,9.20
2023-11-07T23:03:12.365Z,9.20
2023-11-07T23:05:41.068Z,9.30
2023-11-07T23:08:12.009Z,9.30
2023-11-07T23:10:40.220Z,9.30
2023-11-07T23:13:08.325Z,9.30
2023-11-07T23:15:37.628Z,9.30
2023-11-07T23:18:06.170Z,9.30
2023-11-07T23:20:37.684Z,9.30
2023-11-07T23:23:04.620Z,9.40
2023-11-07T23:25:31.761Z,9.50
2023-11-07T23:27:58.843Z,9.50
2023-11-07T23:30:25.795Z,9.50
2023-11-07T23:32:52.807Z,9.60
2023-11-07T23:35:19.870Z,9.50
2023-11-07T23:37:47.388Z,9.60
2023-11-07T23:40:14.264Z,9.50
2023-11-07T23:42:44.888Z,9.50
2023-11-07T23:45:12.220Z,9.60
2023-11-07T23:47:41.428Z,9.60
2023-11-07T23:50:09.108Z,9.50
2023-11-07T23:52:38.822Z,9.50
2023-11-07T23:55:07.581Z,9.50
2023-11-07T23:57:35.390Z,9.50
